Arlne — WDC9108 — position and weather

sailwx.info

Track history (hours):
 
Tides and Currents Weather Stations Pressure Air Temp Water Temp Dewpoint Dewpoint Depression Visibility Wind Speed Wind Dir Waves Ship Positions

Arlne

Owner: N. R. Broussard Landing, Inc., ABBEVILLE, LA. More information available from US FCC via Universal Licensing System and Coast Guard Vessel Documentation Center.

Last reported at 2018-Jun-18 02:00 UTC. Time now 2018-Jun-18 02:13 UTC.
Position N 29°47' W 092°11'.

Length 20 m; draft 2.5 m.

Type: Tug. MMSI: 367097670.

Date/timePositionNaut miles runAvg speedWind from/ knotsBaromVisibWave heightAir tempDewpointWater temp
2018-Jun-18 02:00N 29°47' W 092°11'0 0.0
2018-Jun-18 01:30N 29°47' W 092°11'0 0.0
2018-Jun-18 01:00N 29°47' W 092°11'0 0.0
2018-Jun-18 00:30N 29°47' W 092°11'0 0.0
2018-Jun-18 00:00N 29°47' W 092°11'0 0.0
2018-Jun-17 23:30N 29°47' W 092°11'0 0.0
2018-Jun-17 23:00N 29°47' W 092°11'0 0.0
2018-Jun-17 22:30N 29°47' W 092°11'0 0.0
2018-Jun-17 22:00N 29°47' W 092°11'0 0.0
2018-Jun-17 21:30N 29°47' W 092°11'0 0.0
2018-Jun-17 21:00N 29°47' W 092°11'0 0.0
2018-Jun-17 20:30N 29°47' W 092°11'0 0.0
2018-Jun-17 20:00N 29°47' W 092°11'0 0.0
2018-Jun-17 19:30N 29°47' W 092°11'0 0.0
2018-Jun-17 19:00N 29°47' W 092°11'0 0.0
2018-Jun-17 18:30N 29°47' W 092°11'0 0.0
2018-Jun-17 18:00N 29°47' W 092°11'0 0.0
2018-Jun-17 17:30N 29°47' W 092°11'0 0.0
2018-Jun-17 17:00N 29°47' W 092°11'0 0.0
2018-Jun-17 16:30N 29°47' W 092°11'1 1.8
2018-Jun-17 16:00N 29°47' W 092°10'0 0.3
2018-Jun-17 15:30N 29°47' W 092°10'0 0.3
2018-Jun-17 15:00N 29°47' W 092°10'2 4.6
2018-Jun-17 14:30N 29°47' W 092°08'3 5.2
2018-Jun-17 13:56N 29°48' W 092°05'3 5.7
2018-Jun-17 13:29N 29°49' W 092°02'  
2018-Jun-14 14:42N 29°49' W 092°03'2 7.6
2018-Jun-14 14:27N 29°48' W 092°05'4 8.0
2018-Jun-14 14:00N 29°47' W 092°09'2 4.0
2018-Jun-14 13:30N 29°47' W 092°11'0 0.0
2018-Jun-14 13:00N 29°47' W 092°11'0 0.0
2018-Jun-14 12:30N 29°47' W 092°11'0 0.0
2018-Jun-14 12:00N 29°47' W 092°11'0 0.0
2018-Jun-14 11:30N 29°47' W 092°11'0 0.0
2018-Jun-14 11:00N 29°47' W 092°11'0 0.0
2018-Jun-14 10:30N 29°47' W 092°11'0 0.0
2018-Jun-14 10:00N 29°47' W 092°11'0 0.0
2018-Jun-14 09:30N 29°47' W 092°11'0 0.0
2018-Jun-14 09:00N 29°47' W 092°11'0 0.0
2018-Jun-14 08:30N 29°47' W 092°11'0 0.0
2018-Jun-14 08:00N 29°47' W 092°11'0 0.0
2018-Jun-14 07:30N 29°47' W 092°11'0 0.0
2018-Jun-14 07:00N 29°47' W 092°11'0 0.0
2018-Jun-14 06:30N 29°47' W 092°11'0 0.0
2018-Jun-14 06:00N 29°47' W 092°11'0 0.0
2018-Jun-14 05:30N 29°47' W 092°11'0 0.0
2018-Jun-14 05:00N 29°47' W 092°11'0 0.0
2018-Jun-14 04:30N 29°47' W 092°11'0 0.0
2018-Jun-14 04:00N 29°47' W 092°11'0 0.0
2018-Jun-14 03:30N 29°47' W 092°11'0 0.0
2018-Jun-14 03:00N 29°47' W 092°11'0 0.0
2018-Jun-14 02:30N 29°47' W 092°11'0 0.0
2018-Jun-14 02:00N 29°47' W 092°11'0 0.0
2018-Jun-14 01:30N 29°47' W 092°11'0 0.0
2018-Jun-14 01:00N 29°47' W 092°11'0 0.0
2018-Jun-14 00:30N 29°47' W 092°11'0 0.0
2018-Jun-14 00:00N 29°47' W 092°11'0 0.0
2018-Jun-13 23:30N 29°47' W 092°11'0 0.0
2018-Jun-13 23:00N 29°47' W 092°11'1 1.3
2018-Jun-13 22:30N 29°47' W 092°11'0 0.0
2018-Jun-13 22:00N 29°47' W 092°11'1 1.3
2018-Jun-13 21:30N 29°47' W 092°11'0 0.0
2018-Jun-13 21:00N 29°47' W 092°11'0 0.0
2018-Jun-13 20:30N 29°47' W 092°11'0 0.0
2018-Jun-13 20:00N 29°47' W 092°11'0 0.0
2018-Jun-13 19:30N 29°47' W 092°11'0 0.0
2018-Jun-13 19:00N 29°47' W 092°11'0 0.0
2018-Jun-13 18:30N 29°47' W 092°11'0 0.0
2018-Jun-13 18:00N 29°47' W 092°11'1 1.4
2018-Jun-13 17:30N 29°47' W 092°10'0 0.1
2018-Jun-13 17:00N 29°47' W 092°10'0 0.3
2018-Jun-13 16:30N 29°47' W 092°11'1 1.3
2018-Jun-13 16:00N 29°47' W 092°11'0 0.0
2018-Jun-13 15:30N 29°47' W 092°11'0 0.0
2018-Jun-13 15:00N 29°47' W 092°11'0 0.0
2018-Jun-13 14:30N 29°47' W 092°11'0 0.0
2018-Jun-13 14:00N 29°47' W 092°11'0 0.0
2018-Jun-13 13:30N 29°47' W 092°11'0 0.0
2018-Jun-13 13:00N 29°47' W 092°11'0 0.0
2018-Jun-13 12:30N 29°47' W 092°11'0 0.0
2018-Jun-13 12:00N 29°47' W 092°11'0 0.0
2018-Jun-13 11:30N 29°47' W 092°11'0 0.0
2018-Jun-13 11:00N 29°47' W 092°11'0 0.0
2018-Jun-13 10:30N 29°47' W 092°11'0 0.0
2018-Jun-13 10:00N 29°47' W 092°11'0 0.0
2018-Jun-13 09:30N 29°47' W 092°11'0 0.0
2018-Jun-13 09:00N 29°47' W 092°11'0 0.0
2018-Jun-13 08:30N 29°47' W 092°11'0 0.0
2018-Jun-13 08:00N 29°47' W 092°11'0 0.0
2018-Jun-13 07:30N 29°47' W 092°11'0 0.0
2018-Jun-13 07:00N 29°47' W 092°11'0 0.0
2018-Jun-13 06:30N 29°47' W 092°11'0 0.0
2018-Jun-13 06:00N 29°47' W 092°11'0 0.0
2018-Jun-13 05:30N 29°47' W 092°11'0 0.0
2018-Jun-13 05:00N 29°47' W 092°11'0 0.0
2018-Jun-13 04:30N 29°47' W 092°11'0 0.0
2018-Jun-13 04:00N 29°47' W 092°11'0 0.0
2018-Jun-13 03:30N 29°47' W 092°11'0 0.0
2018-Jun-13 03:00N 29°47' W 092°11'0 0.0
2018-Jun-13 02:30N 29°47' W 092°11'0 0.0
2018-Jun-13 02:00N 29°47' W 092°11'0 0.0
2018-Jun-13 01:30N 29°47' W 092°11'0 0.0
2018-Jun-13 01:00N 29°47' W 092°11'0 0.0
2018-Jun-13 00:30N 29°47' W 092°11'0 0.0
2018-Jun-13 00:00N 29°47' W 092°11'0 0.0
2018-Jun-12 23:30N 29°47' W 092°11'0 0.0
2018-Jun-12 23:00N 29°47' W 092°11'0 0.0
2018-Jun-12 22:30N 29°47' W 092°11'0 0.0
2018-Jun-12 22:00N 29°47' W 092°11'0 0.0
2018-Jun-12 21:30N 29°47' W 092°11'1 1.7
2018-Jun-12 21:00N 29°47' W 092°10'1 1.4
2018-Jun-12 20:30N 29°47' W 092°11'2 4.7
2018-Jun-12 20:00N 29°45' W 092°13'3 0.5
2018-Jun-12 14:19N 29°43' W 092°15'3 8.7
2018-Jun-12 14:00N 29°45' W 092°13'2 4.5
2018-Jun-12 13:30N 29°47' W 092°11'0 0.0
2018-Jun-12 13:00N 29°47' W 092°11'0 0.0
2018-Jun-12 12:30N 29°47' W 092°11'0 0.0
2018-Jun-12 12:00N 29°47' W 092°11'0 0.0
2018-Jun-12 11:30N 29°47' W 092°11'0 0.0
2018-Jun-12 11:00N 29°47' W 092°11'0 0.0
2018-Jun-12 10:30N 29°47' W 092°11'0 0.0
2018-Jun-12 10:00N 29°47' W 092°11'0 0.0
2018-Jun-12 09:30N 29°47' W 092°11'0 0.0
2018-Jun-12 09:00N 29°47' W 092°11'0 0.0
2018-Jun-12 08:30N 29°47' W 092°11'0 0.0
2018-Jun-12 08:00N 29°47' W 092°11'0 0.0
2018-Jun-12 07:30N 29°47' W 092°11'0 0.0
2018-Jun-12 07:00N 29°47' W 092°11'0 0.0
2018-Jun-12 06:30N 29°47' W 092°11'0 0.0
2018-Jun-12 06:00N 29°47' W 092°11'0 0.0
2018-Jun-12 05:30N 29°47' W 092°11'0 0.0
2018-Jun-12 05:00N 29°47' W 092°11'0 0.0
2018-Jun-12 04:30N 29°47' W 092°11'0 0.0
2018-Jun-12 04:00N 29°47' W 092°11'0 0.0
2018-Jun-12 03:30N 29°47' W 092°11'0 0.0
2018-Jun-12 03:00N 29°47' W 092°11'0 0.0
2018-Jun-12 02:30N 29°47' W 092°11'0 0.0
2018-Jun-12 02:00N 29°47' W 092°11'0 0.0
2018-Jun-12 01:30N 29°47' W 092°11'0 0.0
2018-Jun-12 01:00N 29°47' W 092°11'0 0.0
2018-Jun-12 00:30N 29°47' W 092°11'0 0.0
2018-Jun-12 00:00N 29°47' W 092°11'0 0.0
2018-Jun-11 23:30N 29°47' W 092°11'0 0.0
2018-Jun-11 23:00N 29°47' W 092°11'0 0.0
2018-Jun-11 22:30N 29°47' W 092°11'0 0.0
2018-Jun-11 22:00N 29°47' W 092°11'1 2.6
2018-Jun-11 21:30N 29°47' W 092°10'4 7.1
2018-Jun-11 20:57N 29°48' W 092°05'  
Track history (hours):
 
Tides and Currents Weather Stations Pressure Air Temp Water Temp Dewpoint Dewpoint Depression Visibility Wind Speed Wind Dir Waves Ship Positions

Arlne

Owner: N. R. Broussard Landing, Inc., ABBEVILLE, LA. More information available from US FCC via Universal Licensing System and Coast Guard Vessel Documentation Center.

Last reported at 2018-Jun-18 02:00 UTC. Time now 2018-Jun-18 02:13 UTC.
Position N 29°47' W 092°11'.

Length 20 m; draft 2.5 m.

Type: Tug. MMSI: 367097670.

Date/timePositionNaut miles runAvg speedWind from/ knotsBaromVisibWave heightAir tempDewpointWater temp
2018-Jun-18 02:00N 29°47' W 092°11'0 0.0
2018-Jun-18 01:30N 29°47' W 092°11'0 0.0
2018-Jun-18 01:00N 29°47' W 092°11'0 0.0
2018-Jun-18 00:30N 29°47' W 092°11'0 0.0
2018-Jun-18 00:00N 29°47' W 092°11'0 0.0
2018-Jun-17 23:30N 29°47' W 092°11'0 0.0
2018-Jun-17 23:00N 29°47' W 092°11'0 0.0
2018-Jun-17 22:30N 29°47' W 092°11'0 0.0
2018-Jun-17 22:00N 29°47' W 092°11'0 0.0
2018-Jun-17 21:30N 29°47' W 092°11'0 0.0
2018-Jun-17 21:00N 29°47' W 092°11'0 0.0
2018-Jun-17 20:30N 29°47' W 092°11'0 0.0
2018-Jun-17 20:00N 29°47' W 092°11'0 0.0
2018-Jun-17 19:30N 29°47' W 092°11'0 0.0
2018-Jun-17 19:00N 29°47' W 092°11'0 0.0
2018-Jun-17 18:30N 29°47' W 092°11'0 0.0
2018-Jun-17 18:00N 29°47' W 092°11'0 0.0
2018-Jun-17 17:30N 29°47' W 092°11'0 0.0
2018-Jun-17 17:00N 29°47' W 092°11'0 0.0
2018-Jun-17 16:30N 29°47' W 092°11'1 1.8
2018-Jun-17 16:00N 29°47' W 092°10'0 0.3
2018-Jun-17 15:30N 29°47' W 092°10'0 0.3
2018-Jun-17 15:00N 29°47' W 092°10'2 4.6
2018-Jun-17 14:30N 29°47' W 092°08'3 5.2
2018-Jun-17 13:56N 29°48' W 092°05'3 5.7
2018-Jun-17 13:29N 29°49' W 092°02'  
2018-Jun-14 14:42N 29°49' W 092°03'2 7.6
2018-Jun-14 14:27N 29°48' W 092°05'4 8.0
2018-Jun-14 14:00N 29°47' W 092°09'2 4.0
2018-Jun-14 13:30N 29°47' W 092°11'0 0.0
2018-Jun-14 13:00N 29°47' W 092°11'0 0.0
2018-Jun-14 12:30N 29°47' W 092°11'0 0.0
2018-Jun-14 12:00N 29°47' W 092°11'0 0.0
2018-Jun-14 11:30N 29°47' W 092°11'0 0.0
2018-Jun-14 11:00N 29°47' W 092°11'0 0.0
2018-Jun-14 10:30N 29°47' W 092°11'0 0.0
2018-Jun-14 10:00N 29°47' W 092°11'0 0.0
2018-Jun-14 09:30N 29°47' W 092°11'0 0.0
2018-Jun-14 09:00N 29°47' W 092°11'0 0.0
2018-Jun-14 08:30N 29°47' W 092°11'0 0.0
2018-Jun-14 08:00N 29°47' W 092°11'0 0.0
2018-Jun-14 07:30N 29°47' W 092°11'0 0.0
2018-Jun-14 07:00N 29°47' W 092°11'0 0.0
2018-Jun-14 06:30N 29°47' W 092°11'0 0.0
2018-Jun-14 06:00N 29°47' W 092°11'0 0.0
2018-Jun-14 05:30N 29°47' W 092°11'0 0.0
2018-Jun-14 05:00N 29°47' W 092°11'0 0.0
2018-Jun-14 04:30N 29°47' W 092°11'0 0.0
2018-Jun-14 04:00N 29°47' W 092°11'0 0.0
2018-Jun-14 03:30N 29°47' W 092°11'0 0.0
2018-Jun-14 03:00N 29°47' W 092°11'0 0.0
2018-Jun-14 02:30N 29°47' W 092°11'0 0.0
2018-Jun-14 02:00N 29°47' W 092°11'0 0.0
2018-Jun-14 01:30N 29°47' W 092°11'0 0.0
2018-Jun-14 01:00N 29°47' W 092°11'0 0.0
2018-Jun-14 00:30N 29°47' W 092°11'0 0.0
2018-Jun-14 00:00N 29°47' W 092°11'0 0.0
2018-Jun-13 23:30N 29°47' W 092°11'0 0.0
2018-Jun-13 23:00N 29°47' W 092°11'1 1.3
2018-Jun-13 22:30N 29°47' W 092°11'0 0.0
2018-Jun-13 22:00N 29°47' W 092°11'1 1.3
2018-Jun-13 21:30N 29°47' W 092°11'0 0.0
2018-Jun-13 21:00N 29°47' W 092°11'0 0.0
2018-Jun-13 20:30N 29°47' W 092°11'0 0.0
2018-Jun-13 20:00N 29°47' W 092°11'0 0.0
2018-Jun-13 19:30N 29°47' W 092°11'0 0.0
2018-Jun-13 19:00N 29°47' W 092°11'0 0.0
2018-Jun-13 18:30N 29°47' W 092°11'0 0.0
2018-Jun-13 18:00N 29°47' W 092°11'1 1.4
2018-Jun-13 17:30N 29°47' W 092°10'0 0.1
2018-Jun-13 17:00N 29°47' W 092°10'0 0.3
2018-Jun-13 16:30N 29°47' W 092°11'1 1.3
2018-Jun-13 16:00N 29°47' W 092°11'0 0.0
2018-Jun-13 15:30N 29°47' W 092°11'0 0.0
2018-Jun-13 15:00N 29°47' W 092°11'0 0.0
2018-Jun-13 14:30N 29°47' W 092°11'0 0.0
2018-Jun-13 14:00N 29°47' W 092°11'0 0.0
2018-Jun-13 13:30N 29°47' W 092°11'0 0.0
2018-Jun-13 13:00N 29°47' W 092°11'0 0.0
2018-Jun-13 12:30N 29°47' W 092°11'0 0.0
2018-Jun-13 12:00N 29°47' W 092°11'0 0.0
2018-Jun-13 11:30N 29°47' W 092°11'0 0.0
2018-Jun-13 11:00N 29°47' W 092°11'0 0.0
2018-Jun-13 10:30N 29°47' W 092°11'0 0.0
2018-Jun-13 10:00N 29°47' W 092°11'0 0.0
2018-Jun-13 09:30N 29°47' W 092°11'0 0.0
2018-Jun-13 09:00N 29°47' W 092°11'0 0.0
2018-Jun-13 08:30N 29°47' W 092°11'0 0.0
2018-Jun-13 08:00N 29°47' W 092°11'0 0.0
2018-Jun-13 07:30N 29°47' W 092°11'0 0.0
2018-Jun-13 07:00N 29°47' W 092°11'0 0.0
2018-Jun-13 06:30N 29°47' W 092°11'0 0.0
2018-Jun-13 06:00N 29°47' W 092°11'0 0.0
2018-Jun-13 05:30N 29°47' W 092°11'0 0.0
2018-Jun-13 05:00N 29°47' W 092°11'0 0.0
2018-Jun-13 04:30N 29°47' W 092°11'0 0.0
2018-Jun-13 04:00N 29°47' W 092°11'0 0.0
2018-Jun-13 03:30N 29°47' W 092°11'0 0.0
2018-Jun-13 03:00N 29°47' W 092°11'0 0.0
2018-Jun-13 02:30N 29°47' W 092°11'0 0.0
2018-Jun-13 02:00N 29°47' W 092°11'0 0.0
2018-Jun-13 01:30N 29°47' W 092°11'0 0.0
2018-Jun-13 01:00N 29°47' W 092°11'0 0.0
2018-Jun-13 00:30N 29°47' W 092°11'0 0.0
2018-Jun-13 00:00N 29°47' W 092°11'0 0.0
2018-Jun-12 23:30N 29°47' W 092°11'0 0.0
2018-Jun-12 23:00N 29°47' W 092°11'0 0.0
2018-Jun-12 22:30N 29°47' W 092°11'0 0.0
2018-Jun-12 22:00N 29°47' W 092°11'0 0.0
2018-Jun-12 21:30N 29°47' W 092°11'1 1.7
2018-Jun-12 21:00N 29°47' W 092°10'1 1.4
2018-Jun-12 20:30N 29°47' W 092°11'2 4.7
2018-Jun-12 20:00N 29°45' W 092°13'3 0.5
2018-Jun-12 14:19N 29°43' W 092°15'3 8.7
2018-Jun-12 14:00N 29°45' W 092°13'2 4.5
2018-Jun-12 13:30N 29°47' W 092°11'0 0.0
2018-Jun-12 13:00N 29°47' W 092°11'0 0.0
2018-Jun-12 12:30N 29°47' W 092°11'0 0.0
2018-Jun-12 12:00N 29°47' W 092°11'0 0.0
2018-Jun-12 11:30N 29°47' W 092°11'0 0.0
2018-Jun-12 11:00N 29°47' W 092°11'0 0.0
2018-Jun-12 10:30N 29°47' W 092°11'0 0.0
2018-Jun-12 10:00N 29°47' W 092°11'0 0.0
2018-Jun-12 09:30N 29°47' W 092°11'0 0.0
2018-Jun-12 09:00N 29°47' W 092°11'0 0.0
2018-Jun-12 08:30N 29°47' W 092°11'0 0.0
2018-Jun-12 08:00N 29°47' W 092°11'0 0.0
2018-Jun-12 07:30N 29°47' W 092°11'0 0.0
2018-Jun-12 07:00N 29°47' W 092°11'0 0.0
2018-Jun-12 06:30N 29°47' W 092°11'0 0.0
2018-Jun-12 06:00N 29°47' W 092°11'0 0.0
2018-Jun-12 05:30N 29°47' W 092°11'0 0.0
2018-Jun-12 05:00N 29°47' W 092°11'0 0.0
2018-Jun-12 04:30N 29°47' W 092°11'0 0.0
2018-Jun-12 04:00N 29°47' W 092°11'0 0.0
2018-Jun-12 03:30N 29°47' W 092°11'0 0.0
2018-Jun-12 03:00N 29°47' W 092°11'0 0.0
2018-Jun-12 02:30N 29°47' W 092°11'0 0.0
2018-Jun-12 02:00N 29°47' W 092°11'0 0.0
2018-Jun-12 01:30N 29°47' W 092°11'0 0.0
2018-Jun-12 01:00N 29°47' W 092°11'0 0.0
2018-Jun-12 00:30N 29°47' W 092°11'0 0.0
2018-Jun-12 00:00N 29°47' W 092°11'0 0.0
2018-Jun-11 23:30N 29°47' W 092°11'0 0.0
2018-Jun-11 23:00N 29°47' W 092°11'0 0.0
2018-Jun-11 22:30N 29°47' W 092°11'0 0.0
2018-Jun-11 22:00N 29°47' W 092°11'1 2.6
2018-Jun-11 21:30N 29°47' W 092°10'4 7.1
2018-Jun-11 20:57N 29°48' W 092°05'  

Dump ship's entire track history